createdAt,value
2019-05-13T00:06:17.781Z,12.9
2019-05-13T00:36:19.169Z,12.9
2019-05-13T01:06:20.397Z,12.9
2019-05-13T01:36:20.645Z,12.9
2019-05-13T02:06:21.329Z,12.9
2019-05-13T02:36:25.971Z,12.8
2019-05-13T03:06:24.110Z,12.8
2019-05-13T03:36:27.958Z,12.8
2019-05-13T04:06:26.923Z,12.8
2019-05-13T04:36:28.055Z,12.9
2019-05-13T05:06:27.948Z,12.9
2019-05-13T05:36:28.555Z,12.9
2019-05-13T06:06:35.735Z,13
2019-05-13T06:36:34.542Z,13.1
2019-05-13T07:06:35.799Z,13.2
2019-05-13T07:36:33.615Z,13.3
2019-05-13T08:06:34.129Z,13.5
2019-05-13T08:36:43.433Z,13.6
2019-05-13T09:06:34.679Z,13.7
2019-05-13T09:36:36.115Z,13.8
2019-05-13T10:06:41.669Z,13.8
2019-05-13T10:36:44.604Z,13.9
2019-05-13T11:06:45.993Z,13.9
2019-05-13T11:36:45.822Z,13.9
2019-05-13T12:06:57.391Z,13.9
2019-05-13T12:36:44.755Z,13.9
2019-05-13T13:06:48.506Z,13.9
2019-05-13T13:36:48.539Z,13.9
2019-05-13T14:07:42.253Z,13.9
2019-05-13T14:36:46.822Z,13.9
2019-05-13T15:06:47.024Z,13.9
2019-05-13T15:36:49.293Z,13.8
2019-05-13T16:06:54.140Z,13.6
2019-05-13T16:36:52.726Z,13.4
2019-05-13T17:06:55.293Z,13.3
2019-05-13T17:36:57.051Z,13.2
2019-05-13T18:06:54.111Z,13.1
2019-05-13T18:37:02.174Z,13
2019-05-13T19:06:57.129Z,13
2019-05-13T19:36:57.481Z,13
2019-05-13T20:06:58.659Z,12.9
2019-05-13T20:37:01.823Z,12.9
2019-05-13T21:06:14.836Z,12.9
2019-05-13T21:36:13.483Z,12.9
2019-05-13T22:06:14.901Z,12.9
2019-05-13T22:36:18.483Z,12.9
2019-05-13T23:06:16.043Z,12.9
2019-05-13T23:36:20.985Z,12.9
